sensor_id;sensor_type;location;lat;lon;timestamp;P1;durP1;ratioP1;P2;durP2;ratioP2
21860;SDS011;11095;48.066;8.540;2022-07-29T00:02:21;9.07;;;8.25;;
21860;SDS011;11095;48.066;8.540;2022-07-29T00:04:47;9.38;;;8.48;;
21860;SDS011;11095;48.066;8.540;2022-07-29T00:07:13;8.50;;;7.68;;
21860;SDS011;11095;48.066;8.540;2022-07-29T00:09:45;9.52;;;8.02;;
21860;SDS011;11095;48.066;8.540;2022-07-29T00:12:11;8.98;;;8.10;;
21860;SDS011;11095;48.066;8.540;2022-07-29T00:14:37;9.90;;;9.00;;
21860;SDS011;11095;48.066;8.540;2022-07-29T00:17:02;9.38;;;8.43;;
21860;SDS011;11095;48.066;8.540;2022-07-29T00:19:28;8.80;;;8.00;;
21860;SDS011;11095;48.066;8.540;2022-07-29T00:21:53;8.60;;;7.80;;
21860;SDS011;11095;48.066;8.540;2022-07-29T00:24:19;8.75;;;7.90;;
21860;SDS011;11095;48.066;8.540;2022-07-29T00:26:45;9.07;;;8.18;;
21860;SDS011;11095;48.066;8.540;2022-07-29T00:29:10;8.75;;;7.95;;
21860;SDS011;11095;48.066;8.540;2022-07-29T00:31:36;9.15;;;8.30;;
21860;SDS011;11095;48.066;8.540;2022-07-29T00:34:02;8.95;;;8.15;;
21860;SDS011;11095;48.066;8.540;2022-07-29T00:36:27;8.38;;;7.68;;
21860;SDS011;11095;48.066;8.540;2022-07-29T00:38:53;8.57;;;7.85;;
21860;SDS011;11095;48.066;8.540;2022-07-29T00:41:19;7.72;;;7.03;;
21860;SDS011;11095;48.066;8.540;2022-07-29T00:43:45;8.00;;;7.22;;
21860;SDS011;11095;48.066;8.540;2022-07-29T00:46:11;7.97;;;7.28;;
21860;SDS011;11095;48.066;8.540;2022-07-29T00:48:37;7.72;;;7.03;;
21860;SDS011;11095;48.066;8.540;2022-07-29T00:51:03;8.77;;;7.88;;
21860;SDS011;11095;48.066;8.540;2022-07-29T00:53:30;8.60;;;7.80;;
21860;SDS011;11095;48.066;8.540;2022-07-29T00:55:56;8.30;;;7.50;;
21860;SDS011;11095;48.066;8.540;2022-07-29T00:58:23;8.60;;;7.80;;
21860;SDS011;11095;48.066;8.540;2022-07-29T01:00:49;8.75;;;7.88;;
21860;SDS011;11095;48.066;8.540;2022-07-29T01:03:15;8.55;;;7.65;;
21860;SDS011;11095;48.066;8.540;2022-07-29T01:05:41;8.45;;;7.68;;
21860;SDS011;11095;48.066;8.540;2022-07-29T01:08:10;9.43;;;7.88;;
21860;SDS011;11095;48.066;8.540;2022-07-29T01:10:37;9.25;;;8.35;;
21860;SDS011;11095;48.066;8.540;2022-07-29T01:13:04;9.20;;;8.40;;
21860;SDS011;11095;48.066;8.540;2022-07-29T01:15:30;9.15;;;8.25;;
21860;SDS011;11095;48.066;8.540;2022-07-29T01:23:40;9.98;;;8.32;;
21860;SDS011;11095;48.066;8.540;2022-07-29T01:31:45;9.10;;;7.88;;
21860;SDS011;11095;48.066;8.540;2022-07-29T01:34:11;9.27;;;8.20;;
21860;SDS011;11095;48.066;8.540;2022-07-29T01:36:48;9.57;;;8.38;;
21860;SDS011;11095;48.066;8.540;2022-07-29T01:39:40;8.70;;;7.90;;
21860;SDS011;11095;48.066;8.540;2022-07-29T01:42:20;8.35;;;7.53;;
21860;SDS011;11095;48.066;8.540;2022-07-29T01:47:37;10.13;;;8.15;;
21860;SDS011;11095;48.066;8.540;2022-07-29T01:50:12;9.48;;;8.57;;
21860;SDS011;11095;48.066;8.540;2022-07-29T01:52:46;9.95;;;8.73;;
21860;SDS011;11095;48.066;8.540;2022-07-29T01:55:17;10.38;;;8.55;;
21860;SDS011;11095;48.066;8.540;2022-07-29T01:57:47;11.60;;;9.25;;
21860;SDS011;11095;48.066;8.540;2022-07-29T02:00:14;10.50;;;9.40;;
21860;SDS011;11095;48.066;8.540;2022-07-29T02:02:42;10.40;;;9.23;;
21860;SDS011;11095;48.066;8.540;2022-07-29T02:05:10;11.15;;;9.18;;
21860;SDS011;11095;48.066;8.540;2022-07-29T02:07:40;10.68;;;9.57;;
21860;SDS011;11095;48.066;8.540;2022-07-29T02:10:07;11.55;;;10.05;;
21860;SDS011;11095;48.066;8.540;2022-07-29T02:12:35;9.02;;;8.13;;
21860;SDS011;11095;48.066;8.540;2022-07-29T02:15:03;11.20;;;9.55;;
21860;SDS011;11095;48.066;8.540;2022-07-29T02:17:35;9.63;;;8.63;;
21860;SDS011;11095;48.066;8.540;2022-07-29T02:20:09;10.02;;;9.02;;
21860;SDS011;11095;48.066;8.540;2022-07-29T02:22:35;11.93;;;9.93;;
21860;SDS011;11095;48.066;8.540;2022-07-29T02:25:03;11.38;;;9.20;;
21860;SDS011;11095;48.066;8.540;2022-07-29T02:27:31;11.43;;;9.77;;
21860;SDS011;11095;48.066;8.540;2022-07-29T02:29:59;9.80;;;8.77;;
21860;SDS011;11095;48.066;8.540;2022-07-29T02:32:27;9.90;;;8.88;;
21860;SDS011;11095;48.066;8.540;2022-07-29T02:34:55;12.05;;;10.75;;
21860;SDS011;11095;48.066;8.540;2022-07-29T02:37:22;11.40;;;9.32;;
21860;SDS011;11095;48.066;8.540;2022-07-29T02:39:49;11.65;;;10.38;;
21860;SDS011;11095;48.066;8.540;2022-07-29T02:42:18;10.25;;;9.10;;
21860;SDS011;11095;48.066;8.540;2022-07-29T02:44:47;13.73;;;11.13;;
21860;SDS011;11095;48.066;8.540;2022-07-29T02:47:18;11.23;;;10.10;;
21860;SDS011;11095;48.066;8.540;2022-07-29T02:52:28;11.23;;;10.13;;
21860;SDS011;11095;48.066;8.540;2022-07-29T02:55:16;11.48;;;9.95;;
21860;SDS011;11095;48.066;8.540;2022-07-29T02:57:47;11.60;;;10.27;;
21860;SDS011;11095;48.066;8.540;2022-07-29T03:00:18;10.98;;;9.88;;
21860;SDS011;11095;48.066;8.540;2022-07-29T03:02:45;10.98;;;9.98;;
21860;SDS011;11095;48.066;8.540;2022-07-29T03:05:18;11.02;;;9.93;;
21860;SDS011;11095;48.066;8.540;2022-07-29T03:07:46;11.40;;;10.27;;
21860;SDS011;11095;48.066;8.540;2022-07-29T03:10:17;13.27;;;11.10;;
21860;SDS011;11095;48.066;8.540;2022-07-29T03:12:43;12.15;;;10.85;;
21860;SDS011;11095;48.066;8.540;2022-07-29T03:15:10;11.93;;;10.70;;
21860;SDS011;11095;48.066;8.540;2022-07-29T03:17:36;11.55;;;10.45;;
21860;SDS011;11095;48.066;8.540;2022-07-29T03:20:03;11.23;;;10.13;;
21860;SDS011;11095;48.066;8.540;2022-07-29T03:22:29;10.75;;;9.65;;
21860;SDS011;11095;48.066;8.540;2022-07-29T03:24:55;10.75;;;9.65;;
21860;SDS011;11095;48.066;8.540;2022-07-29T03:27:21;10.93;;;9.85;;
21860;SDS011;11095;48.066;8.540;2022-07-29T03:29:46;9.95;;;9.05;;
21860;SDS011;11095;48.066;8.540;2022-07-29T03:32:12;11.25;;;10.15;;
21860;SDS011;11095;48.066;8.540;2022-07-29T03:34:38;10.13;;;9.18;;
21860;SDS011;11095;48.066;8.540;2022-07-29T03:37:04;10.68;;;9.57;;
21860;SDS011;11095;48.066;8.540;2022-07-29T03:39:31;9.75;;;8.85;;
21860;SDS011;11095;48.066;8.540;2022-07-29T03:42:01;11.13;;;10.07;;
21860;SDS011;11095;48.066;8.540;2022-07-29T03:44:30;11.38;;;10.27;;
21860;SDS011;11095;48.066;8.540;2022-07-29T03:46:57;10.05;;;9.05;;
21860;SDS011;11095;48.066;8.540;2022-07-29T03:49:26;10.40;;;9.02;;
21860;SDS011;11095;48.066;8.540;2022-07-29T03:51:54;12.15;;;9.38;;
21860;SDS011;11095;48.066;8.540;2022-07-29T03:54:20;10.05;;;9.05;;
21860;SDS011;11095;48.066;8.540;2022-07-29T03:56:46;9.57;;;8.65;;
21860;SDS011;11095;48.066;8.540;2022-07-29T03:59:14;9.88;;;8.90;;
21860;SDS011;11095;48.066;8.540;2022-07-29T04:01:41;10.25;;;9.23;;
21860;SDS011;11095;48.066;8.540;2022-07-29T04:04:08;9.82;;;8.80;;
21860;SDS011;11095;48.066;8.540;2022-07-29T04:06:37;8.90;;;8.00;;
21860;SDS011;11095;48.066;8.540;2022-07-29T04:09:04;8.65;;;7.75;;
21860;SDS011;11095;48.066;8.540;2022-07-29T04:11:30;9.13;;;8.27;;
21860;SDS011;11095;48.066;8.540;2022-07-29T04:13:56;8.77;;;7.97;;
21860;SDS011;11095;48.066;8.540;2022-07-29T04:16:21;10.00;;;8.30;;
21860;SDS011;11095;48.066;8.540;2022-07-29T04:18:47;8.48;;;7.68;;
21860;SDS011;11095;48.066;8.540;2022-07-29T04:21:12;7.43;;;6.47;;
21860;SDS011;11095;48.066;8.540;2022-07-29T04:23:38;6.22;;;5.72;;
21860;SDS011;11095;48.066;8.540;2022-07-29T04:26:04;5.75;;;5.13;;
21860;SDS011;11095;48.066;8.540;2022-07-29T04:28:29;5.10;;;4.60;;
21860;SDS011;11095;48.066;8.540;2022-07-29T04:30:55;5.75;;;5.15;;
21860;SDS011;11095;48.066;8.540;2022-07-29T04:33:20;5.30;;;4.78;;
21860;SDS011;11095;48.066;8.540;2022-07-29T04:35:46;5.63;;;5.03;;
21860;SDS011;11095;48.066;8.540;2022-07-29T04:38:12;5.57;;;5.05;;
21860;SDS011;11095;48.066;8.540;2022-07-29T04:40:37;6.47;;;5.88;;
21860;SDS011;11095;48.066;8.540;2022-07-29T04:43:03;8.98;;;6.45;;
21860;SDS011;11095;48.066;8.540;2022-07-29T04:45:28;6.47;;;5.88;;
21860;SDS011;11095;48.066;8.540;2022-07-29T04:47:54;7.13;;;6.22;;
21860;SDS011;11095;48.066;8.540;2022-07-29T04:50:20;6.40;;;5.80;;
21860;SDS011;11095;48.066;8.540;2022-07-29T04:52:46;6.43;;;5.72;;
21860;SDS011;11095;48.066;8.540;2022-07-29T04:55:12;6.00;;;5.40;;
21860;SDS011;11095;48.066;8.540;2022-07-29T04:57:38;5.95;;;4.68;;
21860;SDS011;11095;48.066;8.540;2022-07-29T05:00:04;5.38;;;4.88;;
21860;SDS011;11095;48.066;8.540;2022-07-29T05:02:31;6.43;;;4.93;;
21860;SDS011;11095;48.066;8.540;2022-07-29T05:04:57;5.40;;;4.47;;
21860;SDS011;11095;48.066;8.540;2022-07-29T05:07:23;5.57;;;5.07;;
21860;SDS011;11095;48.066;8.540;2022-07-29T05:09:50;5.70;;;4.90;;
21860;SDS011;11095;48.066;8.540;2022-07-29T05:12:15;5.85;;;4.78;;
21860;SDS011;11095;48.066;8.540;2022-07-29T05:14:41;6.20;;;5.40;;
21860;SDS011;11095;48.066;8.540;2022-07-29T05:17:06;5.68;;;5.07;;
21860;SDS011;11095;48.066;8.540;2022-07-29T05:19:32;6.80;;;5.63;;
21860;SDS011;11095;48.066;8.540;2022-07-29T05:21:58;6.60;;;5.55;;
21860;SDS011;11095;48.066;8.540;2022-07-29T05:24:24;7.63;;;5.10;;
21860;SDS011;11095;48.066;8.540;2022-07-29T05:26:50;6.07;;;5.45;;
21860;SDS011;11095;48.066;8.540;2022-07-29T05:29:16;5.55;;;4.90;;
21860;SDS011;11095;48.066;8.540;2022-07-29T05:31:41;7.15;;;5.30;;
21860;SDS011;11095;48.066;8.540;2022-07-29T05:34:07;5.78;;;5.22;;
21860;SDS011;11095;48.066;8.540;2022-07-29T05:36:33;6.05;;;4.85;;
21860;SDS011;11095;48.066;8.540;2022-07-29T05:38:58;7.22;;;4.68;;
21860;SDS011;11095;48.066;8.540;2022-07-29T05:41:24;6.00;;;4.70;;
21860;SDS011;11095;48.066;8.540;2022-07-29T05:43:50;4.55;;;4.00;;
21860;SDS011;11095;48.066;8.540;2022-07-29T05:46:16;4.07;;;3.60;;
21860;SDS011;11095;48.066;8.540;2022-07-29T05:48:41;5.03;;;3.95;;
21860;SDS011;11095;48.066;8.540;2022-07-29T05:51:07;5.28;;;4.10;;
21860;SDS011;11095;48.066;8.540;2022-07-29T05:53:33;3.85;;;3.55;;
21860;SDS011;11095;48.066;8.540;2022-07-29T05:55:58;5.95;;;4.30;;
21860;SDS011;11095;48.066;8.540;2022-07-29T05:58:29;4.28;;;3.60;;
21860;SDS011;11095;48.066;8.540;2022-07-29T06:00:55;4.30;;;3.63;;
21860;SDS011;11095;48.066;8.540;2022-07-29T06:03:24;3.90;;;3.60;;
21860;SDS011;11095;48.066;8.540;2022-07-29T06:05:50;4.05;;;3.65;;
21860;SDS011;11095;48.066;8.540;2022-07-29T06:08:16;7.95;;;4.90;;
21860;SDS011;11095;48.066;8.540;2022-07-29T06:10:42;5.22;;;4.72;;
21860;SDS011;11095;48.066;8.540;2022-07-29T06:13:08;4.78;;;4.28;;
21860;SDS011;11095;48.066;8.540;2022-07-29T06:15:34;4.30;;;3.90;;
21860;SDS011;11095;48.066;8.540;2022-07-29T06:17:59;4.07;;;3.55;;
21860;SDS011;11095;48.066;8.540;2022-07-29T06:20:25;4.65;;;3.88;;
21860;SDS011;11095;48.066;8.540;2022-07-29T06:22:51;4.43;;;3.70;;
21860;SDS011;11095;48.066;8.540;2022-07-29T06:25:17;4.95;;;3.70;;
21860;SDS011;11095;48.066;8.540;2022-07-29T06:27:43;4.38;;;3.90;;
21860;SDS011;11095;48.066;8.540;2022-07-29T06:30:08;4.60;;;4.20;;
21860;SDS011;11095;48.066;8.540;2022-07-29T06:32:35;4.53;;;4.13;;
21860;SDS011;11095;48.066;8.540;2022-07-29T06:35:01;4.63;;;4.22;;
21860;SDS011;11095;48.066;8.540;2022-07-29T06:37:26;5.97;;;4.65;;
21860;SDS011;11095;48.066;8.540;2022-07-29T06:39:52;4.72;;;4.32;;
21860;SDS011;11095;48.066;8.540;2022-07-29T06:42:41;4.32;;;3.90;;
21860;SDS011;11095;48.066;8.540;2022-07-29T06:45:08;5.68;;;4.60;;
21860;SDS011;11095;48.066;8.540;2022-07-29T06:47:34;5.35;;;4.75;;
21860;SDS011;11095;48.066;8.540;2022-07-29T06:50:00;7.43;;;4.90;;
21860;SDS011;11095;48.066;8.540;2022-07-29T06:52:25;4.95;;;4.45;;
21860;SDS011;11095;48.066;8.540;2022-07-29T06:54:51;5.00;;;4.22;;
21860;SDS011;11095;48.066;8.540;2022-07-29T06:57:16;4.90;;;4.40;;
21860;SDS011;11095;48.066;8.540;2022-07-29T06:59:42;3.95;;;3.58;;
21860;SDS011;11095;48.066;8.540;2022-07-29T07:02:07;3.60;;;3.30;;
21860;SDS011;11095;48.066;8.540;2022-07-29T07:04:33;4.60;;;3.78;;
21860;SDS011;11095;48.066;8.540;2022-07-29T07:06:59;4.55;;;3.50;;
21860;SDS011;11095;48.066;8.540;2022-07-29T07:09:24;4.50;;;4.03;;
21860;SDS011;11095;48.066;8.540;2022-07-29T07:11:50;4.43;;;4.03;;
21860;SDS011;11095;48.066;8.540;2022-07-29T07:14:16;4.20;;;3.80;;
21860;SDS011;11095;48.066;8.540;2022-07-29T07:16:41;4.70;;;4.20;;
21860;SDS011;11095;48.066;8.540;2022-07-29T07:19:07;5.43;;;4.68;;
21860;SDS011;11095;48.066;8.540;2022-07-29T07:21:33;5.00;;;4.40;;
21860;SDS011;11095;48.066;8.540;2022-07-29T07:23:59;4.45;;;3.72;;
21860;SDS011;11095;48.066;8.540;2022-07-29T07:26:25;4.68;;;3.70;;
21860;SDS011;11095;48.066;8.540;2022-07-29T07:28:51;3.80;;;3.45;;
21860;SDS011;11095;48.066;8.540;2022-07-29T07:31:17;4.95;;;3.67;;
21860;SDS011;11095;48.066;8.540;2022-07-29T07:33:43;3.40;;;2.80;;
21860;SDS011;11095;48.066;8.540;2022-07-29T07:36:08;4.22;;;2.95;;
21860;SDS011;11095;48.066;8.540;2022-07-29T07:38:34;3.50;;;2.92;;
21860;SDS011;11095;48.066;8.540;2022-07-29T07:41:00;4.07;;;3.03;;
21860;SDS011;11095;48.066;8.540;2022-07-29T07:43:26;3.00;;;2.70;;
21860;SDS011;11095;48.066;8.540;2022-07-29T07:45:52;4.35;;;3.30;;
21860;SDS011;11095;48.066;8.540;2022-07-29T07:48:17;4.32;;;3.58;;
21860;SDS011;11095;48.066;8.540;2022-07-29T07:50:43;5.43;;;3.80;;
21860;SDS011;11095;48.066;8.540;2022-07-29T07:53:09;3.72;;;3.35;;
21860;SDS011;11095;48.066;8.540;2022-07-29T07:55:39;4.57;;;3.50;;
21860;SDS011;11095;48.066;8.540;2022-07-29T07:58:06;4.85;;;4.13;;
21860;SDS011;11095;48.066;8.540;2022-07-29T08:00:31;4.25;;;3.35;;
21860;SDS011;11095;48.066;8.540;2022-07-29T08:02:57;4.63;;;3.45;;
21860;SDS011;11095;48.066;8.540;2022-07-29T08:05:23;4.75;;;4.35;;
21860;SDS011;11095;48.066;8.540;2022-07-29T08:07:49;5.50;;;3.80;;
21860;SDS011;11095;48.066;8.540;2022-07-29T08:10:15;5.63;;;3.80;;
21860;SDS011;11095;48.066;8.540;2022-07-29T08:13:05;4.05;;;3.65;;
21860;SDS011;11095;48.066;8.540;2022-07-29T08:15:32;4.57;;;3.72;;
21860;SDS011;11095;48.066;8.540;2022-07-29T08:17:58;5.13;;;4.05;;
21860;SDS011;11095;48.066;8.540;2022-07-29T08:20:24;5.85;;;4.15;;
21860;SDS011;11095;48.066;8.540;2022-07-29T08:22:51;3.65;;;3.35;;
21860;SDS011;11095;48.066;8.540;2022-07-29T08:25:17;4.20;;;3.80;;
21860;SDS011;11095;48.066;8.540;2022-07-29T08:27:45;4.22;;;3.92;;
21860;SDS011;11095;48.066;8.540;2022-07-29T08:30:11;4.88;;;4.30;;
21860;SDS011;11095;48.066;8.540;2022-07-29T08:32:37;4.85;;;4.20;;
21860;SDS011;11095;48.066;8.540;2022-07-29T08:35:03;4.15;;;3.75;;
21860;SDS011;11095;48.066;8.540;2022-07-29T08:37:29;4.32;;;4.00;;
21860;SDS011;11095;48.066;8.540;2022-07-29T08:39:55;4.82;;;4.03;;
21860;SDS011;11095;48.066;8.540;2022-07-29T08:42:20;5.20;;;4.13;;
21860;SDS011;11095;48.066;8.540;2022-07-29T08:44:46;5.00;;;4.47;;
21860;SDS011;11095;48.066;8.540;2022-07-29T08:47:16;4.25;;;3.85;;
21860;SDS011;11095;48.066;8.540;2022-07-29T08:49:42;3.70;;;3.40;;
21860;SDS011;11095;48.066;8.540;2022-07-29T08:52:10;4.40;;;3.85;;
21860;SDS011;11095;48.066;8.540;2022-07-29T08:54:36;3.70;;;3.28;;
21860;SDS011;11095;48.066;8.540;2022-07-29T08:57:03;5.15;;;3.97;;
21860;SDS011;11095;48.066;8.540;2022-07-29T08:59:30;4.38;;;3.42;;
21860;SDS011;11095;48.066;8.540;2022-07-29T09:01:59;4.78;;;3.83;;
21860;SDS011;11095;48.066;8.540;2022-07-29T09:04:26;4.35;;;3.78;;
21860;SDS011;11095;48.066;8.540;2022-07-29T09:06:56;4.78;;;3.67;;
21860;SDS011;11095;48.066;8.540;2022-07-29T09:09:23;5.25;;;3.80;;
21860;SDS011;11095;48.066;8.540;2022-07-29T09:11:49;4.30;;;3.90;;
21860;SDS011;11095;48.066;8.540;2022-07-29T09:14:15;4.03;;;3.70;;
21860;SDS011;11095;48.066;8.540;2022-07-29T09:16:52;5.68;;;4.00;;
21860;SDS011;11095;48.066;8.540;2022-07-29T09:19:23;3.63;;;3.33;;
21860;SDS011;11095;48.066;8.540;2022-07-29T09:21:56;4.88;;;3.55;;
21860;SDS011;11095;48.066;8.540;2022-07-29T09:24:24;3.83;;;3.42;;
21860;SDS011;11095;48.066;8.540;2022-07-29T09:26:51;3.60;;;3.30;;
21860;SDS011;11095;48.066;8.540;2022-07-29T09:29:18;3.55;;;3.25;;
21860;SDS011;11095;48.066;8.540;2022-07-29T09:31:49;3.90;;;3.50;;
21860;SDS011;11095;48.066;8.540;2022-07-29T09:34:17;4.30;;;3.53;;
21860;SDS011;11095;48.066;8.540;2022-07-29T09:36:54;3.55;;;3.22;;
21860;SDS011;11095;48.066;8.540;2022-07-29T09:39:27;3.58;;;3.28;;
21860;SDS011;11095;48.066;8.540;2022-07-29T09:41:55;5.65;;;3.35;;
21860;SDS011;11095;48.066;8.540;2022-07-29T09:44:23;4.20;;;3.80;;
21860;SDS011;11095;48.066;8.540;2022-07-29T09:49:18;3.70;;;3.40;;
21860;SDS011;11095;48.066;8.540;2022-07-29T09:51:44;4.57;;;3.55;;
21860;SDS011;11095;48.066;8.540;2022-07-29T09:54:26;4.13;;;3.53;;
21860;SDS011;11095;48.066;8.540;2022-07-29T09:56:53;4.55;;;3.20;;
21860;SDS011;11095;48.066;8.540;2022-07-29T09:59:20;4.57;;;4.00;;
21860;SDS011;11095;48.066;8.540;2022-07-29T10:01:49;3.63;;;3.33;;
21860;SDS011;11095;48.066;8.540;2022-07-29T10:04:15;4.13;;;3.60;;
21860;SDS011;11095;48.066;8.540;2022-07-29T10:07:00;4.10;;;3.58;;
21860;SDS011;11095;48.066;8.540;2022-07-29T10:09:27;4.25;;;3.45;;
21860;SDS011;11095;48.066;8.540;2022-07-29T10:14:30;4.68;;;3.60;;
21860;SDS011;11095;48.066;8.540;2022-07-29T10:16:59;4.03;;;3.40;;
21860;SDS011;11095;48.066;8.540;2022-07-29T10:19:29;4.32;;;3.70;;
21860;SDS011;11095;48.066;8.540;2022-07-29T10:21:59;3.10;;;2.90;;
21860;SDS011;11095;48.066;8.540;2022-07-29T10:24:28;5.03;;;3.17;;
21860;SDS011;11095;48.066;8.540;2022-07-29T10:26:55;3.70;;;3.15;;
21860;SDS011;11095;48.066;8.540;2022-07-29T10:29:22;4.05;;;3.05;;
21860;SDS011;11095;48.066;8.540;2022-07-29T10:44:02;3.47;;;2.80;;
21860;SDS011;11095;48.066;8.540;2022-07-29T10:46:38;3.22;;;2.92;;
21860;SDS011;11095;48.066;8.540;2022-07-29T10:49:15;3.50;;;3.00;;
21860;SDS011;11095;48.066;8.540;2022-07-29T10:54:39;2.90;;;2.60;;
21860;SDS011;11095;48.066;8.540;2022-07-29T10:59:38;4.55;;;3.00;;
21860;SDS011;11095;48.066;8.540;2022-07-29T11:07:34;3.15;;;2.22;;
21860;SDS011;11095;48.066;8.540;2022-07-29T11:31:31;2.70;;;2.50;;
21860;SDS011;11095;48.066;8.540;2022-07-29T11:34:15;3.42;;;2.33;;
21860;SDS011;11095;48.066;8.540;2022-07-29T11:47:22;2.30;;;2.10;;
21860;SDS011;11095;48.066;8.540;2022-07-29T11:49:49;2.90;;;2.30;;
21860;SDS011;11095;48.066;8.540;2022-07-29T11:52:16;3.72;;;2.10;;
21860;SDS011;11095;48.066;8.540;2022-07-29T11:54:42;3.45;;;2.15;;
21860;SDS011;11095;48.066;8.540;2022-07-29T11:57:09;3.25;;;2.22;;
21860;SDS011;11095;48.066;8.540;2022-07-29T11:59:41;5.20;;;2.22;;
21860;SDS011;11095;48.066;8.540;2022-07-29T12:02:08;4.40;;;2.30;;
21860;SDS011;11095;48.066;8.540;2022-07-29T12:04:56;2.67;;;2.47;;
21860;SDS011;11095;48.066;8.540;2022-07-29T12:07:31;4.65;;;2.10;;
21860;SDS011;11095;48.066;8.540;2022-07-29T12:09:58;2.63;;;2.38;;
21860;SDS011;11095;48.066;8.540;2022-07-29T12:12:24;3.20;;;2.40;;
21860;SDS011;11095;48.066;8.540;2022-07-29T12:14:50;3.20;;;2.50;;
21860;SDS011;11095;48.066;8.540;2022-07-29T12:17:26;2.90;;;2.50;;
21860;SDS011;11095;48.066;8.540;2022-07-29T12:20:00;2.75;;;2.22;;
21860;SDS011;11095;48.066;8.540;2022-07-29T12:22:32;2.80;;;2.42;;
21860;SDS011;11095;48.066;8.540;2022-07-29T12:25:03;2.80;;;2.47;;
21860;SDS011;11095;48.066;8.540;2022-07-29T12:27:31;3.05;;;2.75;;
21860;SDS011;11095;48.066;8.540;2022-07-29T12:32:36;3.55;;;2.70;;
21860;SDS011;11095;48.066;8.540;2022-07-29T12:35:05;4.60;;;2.92;;
21860;SDS011;11095;48.066;8.540;2022-07-29T12:37:36;2.90;;;2.42;;
21860;SDS011;11095;48.066;8.540;2022-07-29T12:40:04;5.07;;;2.70;;
21860;SDS011;11095;48.066;8.540;2022-07-29T12:42:30;4.03;;;2.75;;
21860;SDS011;11095;48.066;8.540;2022-07-29T12:44:56;3.17;;;2.35;;
21860;SDS011;11095;48.066;8.540;2022-07-29T12:47:22;2.60;;;2.40;;
21860;SDS011;11095;48.066;8.540;2022-07-29T12:49:49;2.60;;;2.40;;
21860;SDS011;11095;48.066;8.540;2022-07-29T12:52:25;3.97;;;2.63;;
21860;SDS011;11095;48.066;8.540;2022-07-29T12:54:55;2.85;;;2.50;;
21860;SDS011;11095;48.066;8.540;2022-07-29T12:57:21;4.28;;;2.50;;
21860;SDS011;11095;48.066;8.540;2022-07-29T13:00:10;4.70;;;2.50;;
21860;SDS011;11095;48.066;8.540;2022-07-29T13:02:36;2.72;;;2.50;;
21860;SDS011;11095;48.066;8.540;2022-07-29T13:05:04;3.92;;;2.50;;
21860;SDS011;11095;48.066;8.540;2022-07-29T13:07:31;2.70;;;2.28;;
21860;SDS011;11095;48.066;8.540;2022-07-29T13:10:19;3.10;;;2.38;;
21860;SDS011;11095;48.066;8.540;2022-07-29T13:15:31;2.70;;;2.40;;
21860;SDS011;11095;48.066;8.540;2022-07-29T13:17:57;2.80;;;2.35;;
21860;SDS011;11095;48.066;8.540;2022-07-29T13:20:24;2.70;;;2.28;;
21860;SDS011;11095;48.066;8.540;2022-07-29T13:22:52;2.85;;;2.35;;
21860;SDS011;11095;48.066;8.540;2022-07-29T13:25:31;3.30;;;2.45;;
21860;SDS011;11095;48.066;8.540;2022-07-29T13:27:58;3.08;;;2.35;;
21860;SDS011;11095;48.066;8.540;2022-07-29T13:30:24;5.15;;;2.80;;
21860;SDS011;11095;48.066;8.540;2022-07-29T13:32:51;2.58;;;2.38;;
21860;SDS011;11095;48.066;8.540;2022-07-29T13:35:17;2.65;;;2.40;;
21860;SDS011;11095;48.066;8.540;2022-07-29T13:37:44;3.85;;;2.85;;
21860;SDS011;11095;48.066;8.540;2022-07-29T13:40:10;3.30;;;2.75;;
21860;SDS011;11095;48.066;8.540;2022-07-29T13:42:37;3.38;;;2.83;;
21860;SDS011;11095;48.066;8.540;2022-07-29T13:45:03;3.97;;;2.95;;
21860;SDS011;11095;48.066;8.540;2022-07-29T13:47:30;3.75;;;2.70;;
21860;SDS011;11095;48.066;8.540;2022-07-29T13:49:55;3.17;;;2.90;;
21860;SDS011;11095;48.066;8.540;2022-07-29T13:52:21;3.20;;;2.53;;
21860;SDS011;11095;48.066;8.540;2022-07-29T13:54:47;4.85;;;2.85;;
21860;SDS011;11095;48.066;8.540;2022-07-29T13:57:13;3.85;;;3.00;;
21860;SDS011;11095;48.066;8.540;2022-07-29T13:59:40;2.78;;;2.58;;
21860;SDS011;11095;48.066;8.540;2022-07-29T14:02:09;3.50;;;2.67;;
21860;SDS011;11095;48.066;8.540;2022-07-29T14:04:37;2.75;;;2.55;;
21860;SDS011;11095;48.066;8.540;2022-07-29T14:07:03;3.40;;;2.78;;
21860;SDS011;11095;48.066;8.540;2022-07-29T14:09:28;3.55;;;2.80;;
21860;SDS011;11095;48.066;8.540;2022-07-29T14:11:54;3.63;;;3.03;;
21860;SDS011;11095;48.066;8.540;2022-07-29T14:14:20;3.42;;;2.80;;
21860;SDS011;11095;48.066;8.540;2022-07-29T14:16:46;3.00;;;2.78;;
21860;SDS011;11095;48.066;8.540;2022-07-29T14:19:12;3.70;;;3.00;;
21860;SDS011;11095;48.066;8.540;2022-07-29T14:21:37;3.38;;;3.08;;
21860;SDS011;11095;48.066;8.540;2022-07-29T14:24:03;3.42;;;2.97;;
21860;SDS011;11095;48.066;8.540;2022-07-29T14:26:30;2.90;;;2.60;;
21860;SDS011;11095;48.066;8.540;2022-07-29T14:28:55;3.70;;;2.75;;
21860;SDS011;11095;48.066;8.540;2022-07-29T14:31:21;3.00;;;2.70;;
21860;SDS011;11095;48.066;8.540;2022-07-29T14:33:47;3.03;;;2.60;;
21860;SDS011;11095;48.066;8.540;2022-07-29T14:36:13;6.07;;;2.83;;
21860;SDS011;11095;48.066;8.540;2022-07-29T14:38:38;2.83;;;2.50;;
21860;SDS011;11095;48.066;8.540;2022-07-29T14:41:05;2.50;;;2.30;;
21860;SDS011;11095;48.066;8.540;2022-07-29T14:43:32;3.80;;;2.90;;
21860;SDS011;11095;48.066;8.540;2022-07-29T14:45:59;3.00;;;2.63;;
21860;SDS011;11095;48.066;8.540;2022-07-29T14:48:24;4.93;;;3.00;;
21860;SDS011;11095;48.066;8.540;2022-07-29T14:50:50;4.38;;;3.22;;
21860;SDS011;11095;48.066;8.540;2022-07-29T14:53:16;3.38;;;2.72;;
21860;SDS011;11095;48.066;8.540;2022-07-29T14:55:41;3.28;;;2.80;;
21860;SDS011;11095;48.066;8.540;2022-07-29T14:58:07;3.95;;;2.92;;
21860;SDS011;11095;48.066;8.540;2022-07-29T15:00:33;3.30;;;2.92;;
21860;SDS011;11095;48.066;8.540;2022-07-29T15:02:59;3.22;;;2.92;;
21860;SDS011;11095;48.066;8.540;2022-07-29T15:05:25;3.15;;;2.78;;
21860;SDS011;11095;48.066;8.540;2022-07-29T15:07:51;3.78;;;2.90;;
21860;SDS011;11095;48.066;8.540;2022-07-29T15:10:17;3.50;;;3.20;;
21860;SDS011;11095;48.066;8.540;2022-07-29T15:12:43;3.40;;;3.10;;
21860;SDS011;11095;48.066;8.540;2022-07-29T15:15:08;4.00;;;3.15;;
21860;SDS011;11095;48.066;8.540;2022-07-29T15:17:34;6.07;;;2.90;;
21860;SDS011;11095;48.066;8.540;2022-07-29T15:20:00;3.15;;;2.85;;
21860;SDS011;11095;48.066;8.540;2022-07-29T15:22:26;4.13;;;2.95;;
21860;SDS011;11095;48.066;8.540;2022-07-29T15:24:52;3.80;;;3.40;;
21860;SDS011;11095;48.066;8.540;2022-07-29T15:27:18;3.97;;;3.28;;
21860;SDS011;11095;48.066;8.540;2022-07-29T15:29:43;3.85;;;3.20;;
21860;SDS011;11095;48.066;8.540;2022-07-29T15:32:10;3.08;;;2.72;;
21860;SDS011;11095;48.066;8.540;2022-07-29T15:34:36;3.25;;;2.95;;
21860;SDS011;11095;48.066;8.540;2022-07-29T15:37:02;3.22;;;2.90;;
21860;SDS011;11095;48.066;8.540;2022-07-29T15:39:28;3.10;;;2.70;;
21860;SDS011;11095;48.066;8.540;2022-07-29T15:41:54;3.83;;;2.95;;
21860;SDS011;11095;48.066;8.540;2022-07-29T15:44:20;4.78;;;3.10;;
21860;SDS011;11095;48.066;8.540;2022-07-29T15:46:46;3.42;;;3.08;;
21860;SDS011;11095;48.066;8.540;2022-07-29T15:49:31;3.83;;;3.00;;
21860;SDS011;11095;48.066;8.540;2022-07-29T15:52:05;3.75;;;2.72;;
21860;SDS011;11095;48.066;8.540;2022-07-29T15:54:34;7.63;;;3.00;;
21860;SDS011;11095;48.066;8.540;2022-07-29T15:57:01;3.15;;;2.78;;
21860;SDS011;11095;48.066;8.540;2022-07-29T15:59:27;3.30;;;2.60;;
21860;SDS011;11095;48.066;8.540;2022-07-29T16:01:53;3.15;;;2.75;;
21860;SDS011;11095;48.066;8.540;2022-07-29T16:04:19;4.55;;;3.17;;
21860;SDS011;11095;48.066;8.540;2022-07-29T16:06:45;3.78;;;2.72;;
21860;SDS011;11095;48.066;8.540;2022-07-29T16:09:12;3.75;;;2.70;;
21860;SDS011;11095;48.066;8.540;2022-07-29T16:11:38;4.05;;;2.65;;